Jefferson, Maryland
Current Conditions -  °F | °C
As of 7:52 AM on Sunday 23 Nov 2014 (Local Time) from KFDK Reporting Station
Clear Clear  
Wind Chill:   Ceiling: Unl
Heat Index:   Visibility: 10mi
Dew Point: -4°   Wind: 3mph
Humidity: 60%   Direction: 190°S
Pressure: 30.24"   Gusts: NA
Location:  39.36°N, 77.53°W
Report Text: KFDK 231252Z 19003KT 10SM SKC 03/M04 A3024
Loading
Personal Weather Stations






























Interactive Weather Map New forecast layout! Learn more

10-Day Weather Forecast

Advertisements
Track Severe Weather on mobile